createdAt,value
2022-08-26T00:02:12.604Z,67.67
2022-08-26T00:04:41.143Z,68.82
2022-08-26T00:07:09.452Z,69.62
2022-08-26T00:09:40.078Z,69.23
2022-08-26T00:12:12.420Z,69.14
2022-08-26T00:14:42.477Z,68.56
2022-08-26T00:17:10.476Z,67.84
2022-08-26T00:19:38.884Z,66.25
2022-08-26T00:22:06.600Z,65.42
2022-08-26T00:24:34.621Z,66.15
2022-08-26T00:27:03.092Z,67.39
2022-08-26T00:29:32.036Z,67.74
2022-08-26T00:32:06.455Z,67.68
2022-08-26T00:34:35.593Z,68.37
2022-08-26T00:37:03.866Z,68.80
2022-08-26T00:39:36.911Z,69.71
2022-08-26T00:42:04.631Z,69.04
2022-08-26T00:44:32.196Z,69.11
2022-08-26T00:47:05.244Z,70.66
2022-08-26T00:49:44.329Z,71.82
2022-08-26T00:52:19.110Z,72.95
2022-08-26T00:55:16.326Z,72.53
2022-08-26T00:57:51.129Z,73.28
2022-08-26T01:00:24.422Z,72.10
2022-08-26T01:02:52.376Z,70.83
2022-08-26T01:05:20.287Z,72.97
2022-08-26T01:07:48.281Z,73.35
2022-08-26T01:10:21.170Z,71.87
2022-08-26T01:12:58.224Z,73.00
2022-08-26T01:15:32.765Z,72.71
2022-08-26T01:18:03.084Z,74.09
2022-08-26T01:21:04.050Z,72.48
2022-08-26T01:23:36.179Z,71.69
2022-08-26T01:26:18.248Z,71.32
2022-08-26T01:28:51.537Z,71.78
2022-08-26T01:31:24.009Z,72.16
2022-08-26T01:34:10.975Z,72.82
2022-08-26T01:36:40.084Z,73.13
2022-08-26T01:39:08.766Z,72.08
2022-08-26T01:41:38.718Z,72.74
2022-08-26T01:44:10.006Z,73.19
2022-08-26T01:46:37.688Z,73.23
2022-08-26T01:49:08.264Z,74.17
2022-08-26T01:51:38.775Z,74.67
2022-08-26T01:54:11.974Z,74.89
2022-08-26T01:56:42.004Z,74.62
2022-08-26T01:59:14.447Z,73.98
2022-08-26T02:01:43.231Z,74.01
2022-08-26T02:04:40.976Z,74.17
2022-08-26T02:07:10.752Z,73.74
2022-08-26T02:09:41.430Z,74.32
2022-08-26T02:12:12.362Z,74.53
2022-08-26T02:14:50.130Z,74.60
2022-08-26T02:17:23.412Z,74.22
2022-08-26T02:19:51.634Z,73.34
2022-08-26T02:22:21.104Z,73.34
2022-08-26T02:24:56.497Z,73.48
2022-08-26T02:27:32.505Z,73.15
2022-08-26T02:30:10.532Z,73.86
2022-08-26T02:32:40.217Z,74.12
2022-08-26T02:35:11.113Z,73.53
2022-08-26T02:37:39.367Z,73.47
2022-08-26T02:40:12.161Z,72.64
2022-08-26T02:42:39.948Z,72.18
2022-08-26T02:45:11.011Z,72.75
2022-08-26T02:47:39.334Z,72.94
2022-08-26T02:50:07.567Z,73.83
2022-08-26T02:52:35.782Z,74.38
2022-08-26T02:55:05.141Z,75.07
2022-08-26T02:57:33.218Z,75.05
2022-08-26T03:00:01.426Z,75.42
2022-08-26T03:02:29.879Z,75.31
2022-08-26T03:05:02.021Z,74.94
2022-08-26T03:07:31.239Z,73.97
2022-08-26T03:09:59.490Z,73.76
2022-08-26T03:12:27.055Z,74.63
2022-08-26T03:14:55.105Z,75.29
2022-08-26T03:17:22.928Z,75.12
2022-08-26T03:19:57.080Z,77.20
2022-08-26T03:22:26.125Z,78.64
2022-08-26T03:24:54.984Z,78.04
2022-08-26T03:27:22.850Z,77.43
2022-08-26T03:30:09.278Z,77.56
2022-08-26T03:32:39.535Z,77.08
2022-08-26T03:35:09.976Z,76.54
2022-08-26T03:37:38.616Z,78.04
2022-08-26T03:40:10.581Z,79.34
2022-08-26T03:42:41.315Z,80.18
2022-08-26T03:45:14.295Z,81.28
2022-08-26T03:47:43.278Z,82.24
2022-08-26T03:50:14.249Z,82.46
2022-08-26T03:52:44.062Z,82.67
2022-08-26T03:55:13.269Z,82.29
2022-08-26T03:57:41.800Z,82.65
2022-08-26T04:00:15.077Z,83.13
2022-08-26T04:02:48.891Z,82.37
2022-08-26T04:05:19.939Z,82.53
2022-08-26T04:07:48.542Z,82.06
2022-08-26T04:10:19.440Z,82.53
2022-08-26T04:12:48.770Z,81.97
2022-08-26T04:15:17.860Z,82.64
2022-08-26T04:17:47.261Z,82.67
2022-08-26T04:20:16.281Z,83.03
2022-08-26T04:22:45.510Z,83.07
2022-08-26T04:25:14.186Z,81.84
2022-08-26T04:27:41.894Z,80.93
2022-08-26T04:30:10.483Z,81.63
2022-08-26T04:32:38.676Z,81.65
2022-08-26T04:35:07.099Z,81.54
2022-08-26T04:37:37.528Z,81.76
2022-08-26T04:40:06.754Z,83.49
2022-08-26T04:42:34.369Z,83.90
2022-08-26T04:45:05.858Z,83.75
2022-08-26T04:47:38.714Z,82.46
2022-08-26T04:50:08.391Z,81.76
2022-08-26T04:52:39.057Z,81.09
2022-08-26T04:55:08.513Z,81.43
2022-08-26T04:57:36.629Z,81.82
2022-08-26T05:00:13.437Z,83.01
2022-08-26T05:02:41.348Z,84.26
2022-08-26T05:05:12.418Z,84.85
2022-08-26T05:07:40.609Z,85.21
2022-08-26T05:10:09.608Z,85.24
2022-08-26T05:12:39.332Z,84.60
2022-08-26T05:15:10.313Z,82.54
2022-08-26T05:17:38.378Z,81.80
2022-08-26T05:20:06.861Z,82.04
2022-08-26T05:22:34.480Z,82.33
2022-08-26T05:25:02.585Z,83.69
2022-08-26T05:27:30.239Z,83.57
2022-08-26T05:29:59.296Z,82.55
2022-08-26T05:32:27.691Z,82.17
2022-08-26T05:34:57.695Z,81.34
2022-08-26T05:37:26.603Z,79.87
2022-08-26T05:39:54.168Z,78.40
2022-08-26T05:42:22.219Z,77.54
2022-08-26T05:44:56.078Z,76.72
2022-08-26T05:47:25.513Z,77.22
2022-08-26T05:49:53.220Z,78.02
2022-08-26T05:52:21.158Z,75.62
2022-08-26T05:54:52.434Z,74.12
2022-08-26T05:57:20.264Z,71.96
2022-08-26T05:59:51.864Z,70.55
2022-08-26T06:02:21.407Z,69.00
2022-08-26T06:04:49.841Z,67.97
2022-08-26T06:07:39.410Z,67.13
2022-08-26T06:10:30.952Z,67.17
2022-08-26T06:13:02.255Z,69.00
2022-08-26T06:15:46.393Z,65.77
2022-08-26T06:18:17.103Z,66.56
2022-08-26T06:20:57.195Z,66.28
2022-08-26T06:23:46.046Z,65.67
2022-08-26T06:26:16.564Z,63.82
2022-08-26T06:28:45.533Z,63.02
2022-08-26T06:31:15.411Z,61.81
2022-08-26T06:33:45.217Z,61.40
2022-08-26T06:36:25.731Z,58.76
2022-08-26T06:38:56.102Z,60.01
2022-08-26T06:41:25.772Z,62.21
2022-08-26T06:43:53.506Z,60.86
2022-08-26T06:46:22.519Z,59.78
2022-08-26T06:48:50.254Z,58.96
2022-08-26T06:51:24.818Z,57.23
2022-08-26T06:53:55.296Z,57.65
2022-08-26T06:56:26.137Z,55.41
2022-08-26T06:58:54.735Z,52.12
2022-08-26T07:01:30.409Z,52.34
2022-08-26T07:04:03.780Z,51.80
2022-08-26T07:06:39.046Z,51.89
2022-08-26T07:09:09.997Z,53.01
2022-08-26T07:11:39.813Z,52.96
2022-08-26T07:14:09.071Z,53.29
2022-08-26T07:16:37.409Z,52.56
2022-08-26T07:19:11.294Z,51.89
2022-08-26T07:21:43.399Z,49.72
2022-08-26T07:24:11.960Z,48.97
2022-08-26T07:26:43.056Z,48.84
2022-08-26T07:29:12.670Z,48.60
2022-08-26T07:31:42.805Z,48.28
2022-08-26T07:34:11.796Z,47.92
2022-08-26T07:36:39.816Z,47.23
2022-08-26T07:39:07.808Z,47.22
2022-08-26T07:41:36.627Z,46.69
2022-08-26T07:44:04.532Z,46.10
2022-08-26T07:46:32.162Z,45.72
2022-08-26T07:49:00.875Z,45.87
2022-08-26T07:51:28.624Z,45.83
2022-08-26T07:53:56.191Z,46.56
2022-08-26T07:56:24.716Z,46.06
2022-08-26T07:58:53.416Z,45.78
2022-08-26T08:01:24.342Z,45.70
2022-08-26T08:03:54.419Z,44.37
2022-08-26T08:06:27.152Z,46.36
2022-08-26T08:08:55.524Z,45.93
2022-08-26T08:11:26.642Z,45.59
2022-08-26T08:13:56.294Z,45.09
2022-08-26T08:16:32.287Z,44.94
2022-08-26T08:19:03.172Z,45.15
2022-08-26T08:21:31.692Z,45.29
2022-08-26T08:24:00.581Z,44.53
2022-08-26T08:26:28.208Z,43.81
2022-08-26T08:28:58.186Z,44.64
2022-08-26T08:31:55.816Z,43.76
2022-08-26T08:34:18.069Z,43.78
2022-08-26T08:36:46.838Z,43.37
2022-08-26T08:39:14.802Z,42.34
2022-08-26T08:41:48.702Z,42.08
2022-08-26T08:46:58.841Z,42.96
2022-08-26T08:49:28.430Z,42.33
2022-08-26T08:52:00.599Z,42.29
2022-08-26T08:54:30.081Z,41.61
2022-08-26T08:57:28.305Z,42.47
2022-08-26T09:00:09.226Z,42.45
2022-08-26T09:03:00.421Z,42.53
2022-08-26T09:05:40.141Z,41.63
2022-08-26T09:08:15.986Z,41.96
2022-08-26T09:10:59.586Z,42.03
2022-08-26T09:13:29.156Z,41.14
2022-08-26T09:16:07.354Z,41.58
2022-08-26T09:18:54.628Z,41.40
2022-08-26T09:21:25.236Z,39.81
2022-08-26T09:23:56.825Z,39.97
2022-08-26T09:26:42.469Z,40.59
2022-08-26T09:29:27.616Z,40.36
2022-08-26T09:32:22.116Z,40.92
2022-08-26T09:35:23.848Z,39.31
2022-08-26T09:40:35.573Z,37.12
2022-08-26T09:43:22.393Z,36.15
2022-08-26T09:46:09.315Z,35.62
2022-08-26T09:48:40.634Z,34.38
2022-08-26T09:51:24.681Z,33.12
2022-08-26T09:53:56.651Z,31.60
2022-08-26T09:56:39.760Z,33.87
2022-08-26T09:59:11.280Z,33.04
2022-08-26T10:01:42.827Z,32.07
2022-08-26T10:04:15.216Z,30.44
2022-08-26T10:07:03.598Z,29.95
2022-08-26T10:09:36.051Z,29.22
2022-08-26T10:12:06.537Z,29.56
2022-08-26T10:14:40.019Z,29.85
2022-08-26T10:17:26.707Z,29.98
2022-08-26T10:20:04.024Z,29.10
2022-08-26T10:22:48.043Z,28.96
2022-08-26T10:25:23.215Z,29.58
2022-08-26T10:28:08.149Z,28.74
2022-08-26T10:31:01.539Z,27.85
2022-08-26T10:33:29.777Z,27.85
2022-08-26T10:36:03.292Z,26.94
2022-08-26T10:38:40.539Z,27.39
2022-08-26T10:41:19.864Z,26.37
2022-08-26T10:43:55.788Z,26.06
2022-08-26T10:46:29.101Z,25.00
2022-08-26T10:49:07.105Z,25.12
2022-08-26T10:51:42.198Z,24.97
2022-08-26T10:54:34.902Z,25.86
2022-08-26T10:57:09.770Z,26.81
2022-08-26T11:00:30.182Z,27.02
2022-08-26T11:03:25.088Z,28.55
2022-08-26T11:06:17.952Z,27.14
2022-08-26T11:08:49.809Z,27.73
2022-08-26T11:11:40.095Z,27.52
2022-08-26T11:14:10.614Z,26.83
2022-08-26T11:16:44.269Z,27.17
2022-08-26T11:19:59.466Z,25.62
2022-08-26T11:22:38.147Z,24.76
2022-08-26T11:25:20.223Z,25.20
2022-08-26T11:27:54.453Z,25.74
2022-08-26T11:30:24.152Z,26.41
2022-08-26T11:32:55.013Z,27.34
2022-08-26T11:35:25.600Z,27.15
2022-08-26T11:38:29.800Z,26.09
2022-08-26T11:41:07.563Z,28.17
2022-08-26T11:43:38.423Z,29.40
2022-08-26T11:46:10.626Z,29.88
2022-08-26T11:48:43.578Z,29.69
2022-08-26T11:51:21.967Z,28.85
2022-08-26T11:53:51.223Z,28.57
2022-08-26T11:56:31.778Z,26.94
2022-08-26T11:59:02.340Z,25.69
2022-08-26T12:01:36.260Z,23.98
2022-08-26T12:04:07.547Z,24.69
2022-08-26T12:06:45.232Z,25.95
2022-08-26T12:09:25.002Z,25.99
2022-08-26T12:11:54.208Z,26.63
2022-08-26T12:14:27.710Z,26.47
2022-08-26T12:17:12.255Z,26.09
2022-08-26T12:19:40.981Z,25.51
2022-08-26T12:22:25.076Z,27.38
2022-08-26T12:24:59.108Z,28.03
2022-08-26T12:27:29.809Z,27.94
2022-08-26T12:30:20.352Z,26.55
2022-08-26T12:33:14.177Z,25.35
2022-08-26T12:35:56.592Z,24.66
2022-08-26T12:38:26.902Z,25.79
2022-08-26T12:40:56.917Z,24.61
2022-08-26T12:43:41.405Z,23.41
2022-08-26T12:46:13.266Z,23.43
2022-08-26T12:48:44.481Z,22.89
2022-08-26T12:51:26.835Z,23.43
2022-08-26T12:53:55.583Z,25.04
2022-08-26T12:56:35.389Z,24.40
2022-08-26T12:59:11.148Z,24.55
2022-08-26T13:01:44.381Z,23.99
2022-08-26T13:04:42.171Z,24.16
2022-08-26T13:07:25.049Z,23.61
2022-08-26T13:09:55.928Z,22.98
2022-08-26T13:12:25.029Z,22.26
2022-08-26T13:14:53.517Z,21.48
2022-08-26T13:17:21.475Z,21.06
2022-08-26T13:19:49.902Z,20.43
2022-08-26T13:22:23.035Z,20.85
2022-08-26T13:24:54.561Z,19.61
2022-08-26T13:27:26.121Z,20.20
2022-08-26T13:29:55.529Z,20.67
2022-08-26T13:32:27.369Z,19.76
2022-08-26T13:34:57.602Z,19.13
2022-08-26T13:37:34.474Z,19.78
2022-08-26T13:40:06.638Z,21.44
2022-08-26T13:42:34.711Z,21.05
2022-08-26T13:45:03.618Z,21.94
2022-08-26T13:47:33.272Z,20.27
2022-08-26T13:50:01.607Z,20.81
2022-08-26T13:52:31.124Z,19.11
2022-08-26T13:55:00.552Z,18.99
2022-08-26T13:57:30.380Z,18.36
2022-08-26T13:59:59.547Z,18.25
2022-08-26T14:02:28.489Z,17.28
2022-08-26T14:04:56.432Z,18.75
2022-08-26T14:07:24.425Z,17.91
2022-08-26T14:09:53.119Z,17.60
2022-08-26T14:12:20.718Z,18.62
2022-08-26T14:14:48.580Z,19.10
2022-08-26T14:17:21.356Z,19.53
2022-08-26T14:19:50.449Z,20.34
2022-08-26T14:22:22.208Z,20.11
2022-08-26T14:24:50.400Z,20.91
2022-08-26T14:27:18.036Z,20.36
2022-08-26T14:29:45.596Z,20.22
2022-08-26T14:32:24.263Z,20.55
2022-08-26T14:34:52.353Z,20.16
2022-08-26T14:37:20.529Z,19.74
2022-08-26T14:39:48.304Z,19.12
2022-08-26T14:42:22.984Z,18.63
2022-08-26T14:44:56.913Z,17.77
2022-08-26T14:47:25.331Z,17.47
2022-08-26T14:49:53.405Z,17.80
2022-08-26T14:52:21.452Z,18.23
2022-08-26T14:54:49.100Z,18.95
2022-08-26T14:57:22.581Z,18.91
2022-08-26T14:59:51.169Z,19.26
2022-08-26T15:02:30.855Z,19.91
2022-08-26T15:05:02.243Z,19.48
2022-08-26T15:07:31.025Z,20.34
2022-08-26T15:09:58.946Z,21.28
2022-08-26T15:12:27.818Z,23.39
2022-08-26T15:14:55.405Z,23.61
2022-08-26T15:17:24.193Z,23.11
2022-08-26T15:19:52.244Z,23.16
2022-08-26T15:22:20.373Z,22.43
2022-08-26T15:24:48.198Z,22.17
2022-08-26T15:27:21.243Z,23.21
2022-08-26T15:29:49.187Z,24.30
2022-08-26T15:32:16.756Z,24.39
2022-08-26T15:34:44.898Z,25.43
2022-08-26T15:37:12.733Z,26.41
2022-08-26T15:39:40.878Z,26.69
2022-08-26T15:42:08.380Z,27.78
2022-08-26T15:44:36.757Z,28.76
2022-08-26T15:47:04.622Z,29.89
2022-08-26T15:49:32.928Z,30.34
2022-08-26T15:52:00.444Z,31.12
2022-08-26T15:54:27.978Z,31.75
2022-08-26T15:56:57.201Z,31.56
2022-08-26T15:59:25.048Z,32.87
2022-08-26T16:01:52.667Z,34.23
2022-08-26T16:04:21.012Z,34.22
2022-08-26T16:06:50.386Z,34.83
2022-08-26T16:09:19.757Z,35.52
2022-08-26T16:11:47.674Z,35.69
2022-08-26T16:14:15.802Z,35.85
2022-08-26T16:16:43.269Z,37.24
2022-08-26T16:19:11.705Z,37.02
2022-08-26T16:21:40.481Z,36.99
2022-08-26T16:24:09.734Z,37.42
2022-08-26T16:26:38.895Z,37.82
2022-08-26T16:29:09.573Z,37.66
2022-08-26T16:31:38.363Z,37.69
2022-08-26T16:34:10.094Z,37.48
2022-08-26T16:36:39.105Z,35.33
2022-08-26T16:39:08.794Z,34.29
2022-08-26T16:41:36.504Z,33.01
2022-08-26T16:44:04.804Z,34.26
2022-08-26T16:46:34.330Z,35.02
2022-08-26T16:49:04.479Z,35.99
2022-08-26T16:51:32.584Z,36.10
2022-08-26T16:54:08.277Z,36.46
2022-08-26T16:56:36.660Z,35.45
2022-08-26T16:59:06.437Z,35.08
2022-08-26T17:01:34.518Z,35.79
2022-08-26T17:04:02.252Z,36.28
2022-08-26T17:06:30.253Z,37.33
2022-08-26T17:08:58.357Z,37.92
2022-08-26T17:11:26.303Z,39.03
2022-08-26T17:13:54.238Z,38.28
2022-08-26T17:16:26.415Z,38.34
2022-08-26T17:18:57.141Z,39.10
2022-08-26T17:21:25.848Z,39.61
2022-08-26T17:23:55.051Z,39.69
2022-08-26T17:26:22.672Z,39.55
2022-08-26T17:28:51.365Z,40.50
2022-08-26T17:31:19.614Z,40.47
2022-08-26T17:33:53.576Z,39.87
2022-08-26T17:36:27.608Z,40.24
2022-08-26T17:38:57.469Z,40.28
2022-08-26T17:41:25.972Z,40.60
2022-08-26T17:43:53.507Z,41.55
2022-08-26T17:46:21.474Z,40.97
2022-08-26T17:48:49.246Z,41.08
2022-08-26T17:51:19.390Z,40.90
2022-08-26T17:53:48.726Z,40.97
2022-08-26T17:56:18.798Z,41.67
2022-08-26T17:58:51.010Z,41.48
2022-08-26T18:01:26.137Z,41.87
2022-08-26T18:04:00.081Z,42.31
2022-08-26T18:06:30.608Z,42.47
2022-08-26T18:08:59.929Z,43.03
2022-08-26T18:11:28.376Z,43.08
2022-08-26T18:13:55.996Z,42.90
2022-08-26T18:16:24.441Z,43.67
2022-08-26T18:18:53.402Z,44.39
2022-08-26T18:21:24.832Z,44.07
2022-08-26T18:23:54.055Z,44.57
2022-08-26T18:26:26.256Z,45.28
2022-08-26T18:28:54.122Z,45.20
2022-08-26T18:31:21.721Z,44.79
2022-08-26T18:33:50.100Z,45.57
2022-08-26T18:36:27.386Z,45.42
2022-08-26T18:38:55.990Z,46.08
2022-08-26T18:41:26.422Z,46.17
2022-08-26T18:43:54.786Z,46.84
2022-08-26T18:46:25.337Z,46.19
2022-08-26T18:48:55.684Z,46.76
2022-08-26T18:51:26.994Z,47.01
2022-08-26T18:53:54.715Z,47.23
2022-08-26T18:56:23.463Z,47.39
2022-08-26T18:58:51.940Z,47.46
2022-08-26T19:01:23.247Z,47.57
2022-08-26T19:03:53.056Z,48.13
2022-08-26T19:06:23.990Z,48.05
2022-08-26T19:08:52.320Z,48.06
2022-08-26T19:11:31.794Z,49.01
2022-08-26T19:14:04.163Z,49.08
2022-08-26T19:16:31.762Z,50.16
2022-08-26T19:19:01.260Z,50.87
2022-08-26T19:21:29.798Z,51.20
2022-08-26T19:23:59.092Z,51.34
2022-08-26T19:26:27.593Z,52.81
2022-08-26T19:28:56.935Z,53.84
2022-08-26T19:31:25.219Z,54.80
2022-08-26T19:33:53.106Z,54.86
2022-08-26T19:36:24.799Z,56.15
2022-08-26T19:38:53.845Z,56.64
2022-08-26T19:41:36.674Z,56.39
2022-08-26T19:44:37.896Z,57.94
2022-08-26T19:47:08.265Z,57.29
2022-08-26T19:49:37.221Z,56.60
2022-08-26T19:52:06.058Z,55.90
2022-08-26T19:54:36.204Z,56.47
2022-08-26T19:57:04.494Z,58.14
2022-08-26T19:59:33.317Z,59.78
2022-08-26T20:02:01.992Z,59.47
2022-08-26T20:04:31.842Z,59.22
2022-08-26T20:07:01.022Z,58.96
2022-08-26T20:09:33.609Z,59.82
2022-08-26T20:12:03.080Z,59.89
2022-08-26T20:14:30.947Z,59.39
2022-08-26T20:16:58.603Z,60.60
2022-08-26T20:19:44.659Z,61.43
2022-08-26T20:22:13.166Z,62.73
2022-08-26T20:24:40.987Z,62.40
2022-08-26T20:27:09.704Z,62.17
2022-08-26T20:29:38.169Z,61.71
2022-08-26T20:32:07.037Z,61.73
2022-08-26T20:34:36.681Z,62.35
2022-08-26T20:37:05.216Z,62.63
2022-08-26T20:39:33.163Z,65.14
2022-08-26T20:42:01.292Z,63.50
2022-08-26T20:44:28.868Z,64.12
2022-08-26T20:46:59.148Z,64.82
2022-08-26T20:49:27.782Z,65.70
2022-08-26T20:51:56.136Z,65.59
2022-08-26T20:54:28.398Z,62.72
2022-08-26T20:56:57.802Z,61.95
2022-08-26T20:59:26.019Z,63.02
2022-08-26T21:01:53.820Z,63.09
2022-08-26T21:04:24.560Z,62.80
2022-08-26T21:06:53.188Z,64.58
2022-08-26T21:09:23.762Z,64.51
2022-08-26T21:11:53.129Z,63.78
2022-08-26T21:14:25.947Z,64.41
2022-08-26T21:16:54.209Z,63.93
2022-08-26T21:19:22.005Z,63.03
2022-08-26T21:21:50.349Z,61.72
2022-08-26T21:24:18.576Z,61.25
2022-08-26T21:26:46.824Z,65.33
2022-08-26T21:29:14.923Z,66.49
2022-08-26T21:31:46.526Z,68.26
2022-08-26T21:34:18.469Z,68.30
2022-08-26T21:36:47.974Z,69.25
2022-08-26T21:39:17.285Z,69.70
2022-08-26T21:41:46.205Z,69.78
2022-08-26T21:44:16.058Z,68.64
2022-08-26T21:46:45.112Z,67.47
2022-08-26T21:49:15.947Z,66.89
2022-08-26T21:51:47.450Z,67.60
2022-08-26T21:54:18.087Z,70.07
2022-08-26T21:56:47.231Z,71.77
2022-08-26T21:59:17.979Z,72.13
2022-08-26T22:01:46.308Z,72.46
2022-08-26T22:04:14.287Z,73.21
2022-08-26T22:06:47.260Z,72.24
2022-08-26T22:09:18.739Z,73.09
2022-08-26T22:11:47.487Z,73.97
2022-08-26T22:14:16.457Z,74.57
2022-08-26T22:16:50.217Z,75.29
2022-08-26T22:19:23.563Z,74.28
2022-08-26T22:21:54.034Z,74.50
2022-08-26T22:24:23.641Z,74.75
2022-08-26T22:26:52.026Z,74.39
2022-08-26T22:29:20.641Z,74.61
2022-08-26T22:31:48.318Z,73.79
2022-08-26T22:34:17.515Z,74.41
2022-08-26T22:36:47.921Z,74.07
2022-08-26T22:39:18.088Z,73.08
2022-08-26T22:41:48.527Z,74.43
2022-08-26T22:44:17.852Z,73.79
2022-08-26T22:46:47.340Z,72.79
2022-08-26T22:49:16.411Z,72.23
2022-08-26T22:51:46.377Z,71.03
2022-08-26T22:54:15.480Z,71.95
2022-08-26T22:56:45.268Z,73.02
2022-08-26T22:59:13.166Z,73.61
2022-08-26T23:01:43.703Z,73.99
2022-08-26T23:04:11.810Z,74.18
2022-08-26T23:06:43.117Z,73.73
2022-08-26T23:09:11.288Z,72.65
2022-08-26T23:11:43.114Z,73.42
2022-08-26T23:14:12.076Z,74.30
2022-08-26T23:16:44.372Z,74.50
2022-08-26T23:19:13.937Z,74.47
2022-08-26T23:21:41.756Z,74.71
2022-08-26T23:24:10.175Z,75.46
2022-08-26T23:26:40.099Z,75.54
2022-08-26T23:29:11.186Z,75.55
2022-08-26T23:31:40.804Z,75.28
2022-08-26T23:34:27.095Z,75.47
2022-08-26T23:36:57.959Z,75.08
2022-08-26T23:39:26.698Z,74.95
2022-08-26T23:41:54.249Z,74.62
2022-08-26T23:44:22.392Z,74.53
2022-08-26T23:46:50.567Z,74.39
2022-08-26T23:49:18.712Z,73.93
2022-08-26T23:52:04.824Z,75.22
2022-08-26T23:54:33.699Z,75.50
2022-08-26T23:57:01.926Z,77.05
2022-08-26T23:59:29.839Z,78.36
